sensor_id;sensor_type;location;lat;lon;timestamp;P1;durP1;ratioP1;P2;durP2;ratioP2
13855;SDS011;6998;53.608;9.958;2023-07-31T00:01:06;5.55;;;2.30;;
13855;SDS011;6998;53.608;9.958;2023-07-31T00:03:33;5.63;;;2.40;;
13855;SDS011;6998;53.608;9.958;2023-07-31T00:06:00;5.85;;;2.20;;
13855;SDS011;6998;53.608;9.958;2023-07-31T00:08:28;6.70;;;2.30;;
13855;SDS011;6998;53.608;9.958;2023-07-31T00:10:54;6.53;;;2.35;;
13855;SDS011;6998;53.608;9.958;2023-07-31T00:13:21;8.57;;;2.67;;
13855;SDS011;6998;53.608;9.958;2023-07-31T00:15:48;9.15;;;2.40;;
13855;SDS011;6998;53.608;9.958;2023-07-31T00:18:15;4.97;;;2.50;;
13855;SDS011;6998;53.608;9.958;2023-07-31T00:20:41;7.20;;;2.50;;
13855;SDS011;6998;53.608;9.958;2023-07-31T00:23:08;8.38;;;2.47;;
13855;SDS011;6998;53.608;9.958;2023-07-31T00:25:36;9.05;;;2.78;;
13855;SDS011;6998;53.608;9.958;2023-07-31T00:28:03;11.23;;;2.65;;
13855;SDS011;6998;53.608;9.958;2023-07-31T00:30:30;9.13;;;2.45;;
13855;SDS011;6998;53.608;9.958;2023-07-31T00:32:57;7.60;;;2.40;;
13855;SDS011;6998;53.608;9.958;2023-07-31T00:35:23;8.25;;;2.53;;
13855;SDS011;6998;53.608;9.958;2023-07-31T00:37:50;6.53;;;2.17;;
13855;SDS011;6998;53.608;9.958;2023-07-31T00:40:17;7.50;;;2.28;;
13855;SDS011;6998;53.608;9.958;2023-07-31T00:42:45;8.77;;;2.72;;
13855;SDS011;6998;53.608;9.958;2023-07-31T00:45:11;7.45;;;2.58;;
13855;SDS011;6998;53.608;9.958;2023-07-31T00:47:38;7.55;;;2.10;;
13855;SDS011;6998;53.608;9.958;2023-07-31T00:50:05;10.88;;;2.70;;
13855;SDS011;6998;53.608;9.958;2023-07-31T00:52:33;9.88;;;2.60;;
13855;SDS011;6998;53.608;9.958;2023-07-31T00:55:01;6.55;;;2.33;;
13855;SDS011;6998;53.608;9.958;2023-07-31T00:57:27;7.45;;;2.45;;
13855;SDS011;6998;53.608;9.958;2023-07-31T00:59:56;7.20;;;2.25;;
13855;SDS011;6998;53.608;9.958;2023-07-31T01:02:23;8.55;;;2.15;;
13855;SDS011;6998;53.608;9.958;2023-07-31T01:04:49;7.47;;;2.47;;
13855;SDS011;6998;53.608;9.958;2023-07-31T01:07:17;6.63;;;2.38;;
13855;SDS011;6998;53.608;9.958;2023-07-31T01:09:49;8.43;;;2.25;;
13855;SDS011;6998;53.608;9.958;2023-07-31T01:12:21;4.95;;;2.08;;
13855;SDS011;6998;53.608;9.958;2023-07-31T01:15:02;7.05;;;2.35;;
13855;SDS011;6998;53.608;9.958;2023-07-31T01:17:30;9.75;;;2.60;;
13855;SDS011;6998;53.608;9.958;2023-07-31T01:19:58;11.45;;;3.05;;
13855;SDS011;6998;53.608;9.958;2023-07-31T01:22:39;8.45;;;2.65;;
13855;SDS011;6998;53.608;9.958;2023-07-31T01:25:43;8.90;;;3.00;;
13855;SDS011;6998;53.608;9.958;2023-07-31T01:28:18;7.10;;;2.45;;
13855;SDS011;6998;53.608;9.958;2023-07-31T01:30:47;5.22;;;2.55;;
13855;SDS011;6998;53.608;9.958;2023-07-31T01:33:15;8.75;;;2.83;;
13855;SDS011;6998;53.608;9.958;2023-07-31T01:35:43;7.95;;;2.80;;
13855;SDS011;6998;53.608;9.958;2023-07-31T01:38:11;11.23;;;2.70;;
13855;SDS011;6998;53.608;9.958;2023-07-31T01:40:40;10.25;;;2.78;;
13855;SDS011;6998;53.608;9.958;2023-07-31T01:43:09;8.80;;;3.03;;
13855;SDS011;6998;53.608;9.958;2023-07-31T01:45:36;7.07;;;2.97;;
13855;SDS011;6998;53.608;9.958;2023-07-31T01:48:02;6.53;;;2.42;;
13855;SDS011;6998;53.608;9.958;2023-07-31T01:50:29;9.40;;;3.13;;
13855;SDS011;6998;53.608;9.958;2023-07-31T01:52:56;5.32;;;2.80;;
13855;SDS011;6998;53.608;9.958;2023-07-31T01:55:22;5.05;;;2.47;;
13855;SDS011;6998;53.608;9.958;2023-07-31T01:57:49;8.45;;;3.15;;
13855;SDS011;6998;53.608;9.958;2023-07-31T02:00:18;6.25;;;2.83;;
13855;SDS011;6998;53.608;9.958;2023-07-31T02:02:45;6.63;;;2.85;;
13855;SDS011;6998;53.608;9.958;2023-07-31T02:05:12;5.03;;;2.70;;
13855;SDS011;6998;53.608;9.958;2023-07-31T02:07:39;6.60;;;2.78;;
13855;SDS011;6998;53.608;9.958;2023-07-31T02:10:06;6.70;;;2.90;;
13855;SDS011;6998;53.608;9.958;2023-07-31T02:12:33;9.38;;;3.20;;
13855;SDS011;6998;53.608;9.958;2023-07-31T02:14:59;5.95;;;3.10;;
13855;SDS011;6998;53.608;9.958;2023-07-31T02:17:27;8.13;;;3.03;;
13855;SDS011;6998;53.608;9.958;2023-07-31T02:19:54;9.48;;;3.30;;
13855;SDS011;6998;53.608;9.958;2023-07-31T02:22:21;5.95;;;3.17;;
13855;SDS011;6998;53.608;9.958;2023-07-31T02:24:48;6.00;;;2.67;;
13855;SDS011;6998;53.608;9.958;2023-07-31T02:27:14;8.70;;;3.22;;
13855;SDS011;6998;53.608;9.958;2023-07-31T02:29:41;8.38;;;3.10;;
13855;SDS011;6998;53.608;9.958;2023-07-31T02:32:08;6.55;;;3.13;;
13855;SDS011;6998;53.608;9.958;2023-07-31T02:34:35;7.72;;;2.88;;
13855;SDS011;6998;53.608;9.958;2023-07-31T02:37:02;5.93;;;3.00;;
13855;SDS011;6998;53.608;9.958;2023-07-31T02:39:29;7.13;;;2.80;;
13855;SDS011;6998;53.608;9.958;2023-07-31T02:41:55;9.15;;;2.97;;
13855;SDS011;6998;53.608;9.958;2023-07-31T02:44:22;6.35;;;2.72;;
13855;SDS011;6998;53.608;9.958;2023-07-31T02:46:49;4.90;;;2.67;;
13855;SDS011;6998;53.608;9.958;2023-07-31T02:49:15;9.75;;;3.20;;
13855;SDS011;6998;53.608;9.958;2023-07-31T02:51:43;6.32;;;2.67;;
13855;SDS011;6998;53.608;9.958;2023-07-31T02:54:10;5.28;;;2.85;;
13855;SDS011;6998;53.608;9.958;2023-07-31T02:56:37;8.80;;;3.20;;
13855;SDS011;6998;53.608;9.958;2023-07-31T02:59:03;7.75;;;3.03;;
13855;SDS011;6998;53.608;9.958;2023-07-31T03:01:30;9.07;;;3.15;;
13855;SDS011;6998;53.608;9.958;2023-07-31T03:03:57;5.95;;;3.15;;
13855;SDS011;6998;53.608;9.958;2023-07-31T03:06:24;4.18;;;2.75;;
13855;SDS011;6998;53.608;9.958;2023-07-31T03:08:53;4.45;;;2.72;;
13855;SDS011;6998;53.608;9.958;2023-07-31T03:11:20;5.85;;;2.95;;
13855;SDS011;6998;53.608;9.958;2023-07-31T03:13:46;7.38;;;3.00;;
13855;SDS011;6998;53.608;9.958;2023-07-31T03:16:13;7.20;;;2.85;;
13855;SDS011;6998;53.608;9.958;2023-07-31T03:18:40;6.78;;;2.80;;
13855;SDS011;6998;53.608;9.958;2023-07-31T03:21:06;7.30;;;2.80;;
13855;SDS011;6998;53.608;9.958;2023-07-31T03:23:33;7.95;;;3.17;;
13855;SDS011;6998;53.608;9.958;2023-07-31T03:26:01;7.40;;;3.05;;
13855;SDS011;6998;53.608;9.958;2023-07-31T03:28:29;5.78;;;2.92;;
13855;SDS011;6998;53.608;9.958;2023-07-31T03:30:56;4.57;;;2.97;;
13855;SDS011;6998;53.608;9.958;2023-07-31T03:33:23;4.78;;;2.85;;
13855;SDS011;6998;53.608;9.958;2023-07-31T03:35:49;6.03;;;2.90;;
13855;SDS011;6998;53.608;9.958;2023-07-31T03:38:16;7.43;;;2.75;;
13855;SDS011;6998;53.608;9.958;2023-07-31T03:40:43;4.97;;;2.75;;
13855;SDS011;6998;53.608;9.958;2023-07-31T03:43:11;4.68;;;2.55;;
13855;SDS011;6998;53.608;9.958;2023-07-31T03:45:38;6.35;;;2.60;;
13855;SDS011;6998;53.608;9.958;2023-07-31T03:48:05;4.85;;;2.88;;
13855;SDS011;6998;53.608;9.958;2023-07-31T03:50:32;5.28;;;2.80;;
13855;SDS011;6998;53.608;9.958;2023-07-31T03:52:59;5.80;;;3.13;;
13855;SDS011;6998;53.608;9.958;2023-07-31T03:55:26;6.32;;;3.00;;
13855;SDS011;6998;53.608;9.958;2023-07-31T03:57:52;4.07;;;2.60;;
13855;SDS011;6998;53.608;9.958;2023-07-31T04:00:21;5.15;;;3.03;;
13855;SDS011;6998;53.608;9.958;2023-07-31T04:02:47;6.25;;;2.70;;
13855;SDS011;6998;53.608;9.958;2023-07-31T04:05:14;5.05;;;2.97;;
13855;SDS011;6998;53.608;9.958;2023-07-31T04:07:41;5.82;;;3.03;;
13855;SDS011;6998;53.608;9.958;2023-07-31T04:10:08;4.80;;;2.33;;
13855;SDS011;6998;53.608;9.958;2023-07-31T04:12:35;4.72;;;2.78;;
13855;SDS011;6998;53.608;9.958;2023-07-31T04:15:01;4.90;;;2.65;;
13855;SDS011;6998;53.608;9.958;2023-07-31T04:17:30;4.10;;;3.00;;
13855;SDS011;6998;53.608;9.958;2023-07-31T04:19:56;4.15;;;2.95;;
13855;SDS011;6998;53.608;9.958;2023-07-31T04:22:23;4.75;;;2.63;;
13855;SDS011;6998;53.608;9.958;2023-07-31T04:24:50;3.92;;;2.45;;
13855;SDS011;6998;53.608;9.958;2023-07-31T04:27:16;4.05;;;2.60;;
13855;SDS011;6998;53.608;9.958;2023-07-31T04:29:43;4.57;;;2.67;;
13855;SDS011;6998;53.608;9.958;2023-07-31T04:32:12;4.75;;;2.90;;
13855;SDS011;6998;53.608;9.958;2023-07-31T04:34:42;6.13;;;2.45;;
13855;SDS011;6998;53.608;9.958;2023-07-31T04:37:08;5.65;;;2.83;;
13855;SDS011;6998;53.608;9.958;2023-07-31T04:39:35;6.57;;;2.72;;
13855;SDS011;6998;53.608;9.958;2023-07-31T04:42:02;3.67;;;2.35;;
13855;SDS011;6998;53.608;9.958;2023-07-31T04:44:29;2.83;;;2.15;;
13855;SDS011;6998;53.608;9.958;2023-07-31T04:46:56;4.47;;;2.20;;
13855;SDS011;6998;53.608;9.958;2023-07-31T04:49:22;4.10;;;2.40;;
13855;SDS011;6998;53.608;9.958;2023-07-31T04:51:50;4.45;;;2.40;;
13855;SDS011;6998;53.608;9.958;2023-07-31T04:54:17;3.05;;;2.15;;
13855;SDS011;6998;53.608;9.958;2023-07-31T04:56:44;3.00;;;2.28;;
13855;SDS011;6998;53.608;9.958;2023-07-31T04:59:10;2.58;;;2.05;;
13855;SDS011;6998;53.608;9.958;2023-07-31T05:01:37;3.08;;;2.03;;
13855;SDS011;6998;53.608;9.958;2023-07-31T05:04:04;3.10;;;2.08;;
13855;SDS011;6998;53.608;9.958;2023-07-31T05:06:30;3.42;;;2.38;;
13855;SDS011;6998;53.608;9.958;2023-07-31T05:09:00;2.40;;;2.13;;
13855;SDS011;6998;53.608;9.958;2023-07-31T05:11:26;2.42;;;2.08;;
13855;SDS011;6998;53.608;9.958;2023-07-31T05:13:53;3.33;;;2.00;;
13855;SDS011;6998;53.608;9.958;2023-07-31T05:16:20;2.92;;;1.88;;
13855;SDS011;6998;53.608;9.958;2023-07-31T05:18:47;4.00;;;2.05;;
13855;SDS011;6998;53.608;9.958;2023-07-31T05:21:13;2.35;;;2.13;;
13855;SDS011;6998;53.608;9.958;2023-07-31T05:23:40;2.55;;;1.90;;
13855;SDS011;6998;53.608;9.958;2023-07-31T05:26:08;2.65;;;1.92;;
13855;SDS011;6998;53.608;9.958;2023-07-31T05:28:35;3.45;;;1.90;;
13855;SDS011;6998;53.608;9.958;2023-07-31T05:31:02;3.28;;;2.00;;
13855;SDS011;6998;53.608;9.958;2023-07-31T05:33:30;2.42;;;2.22;;
13855;SDS011;6998;53.608;9.958;2023-07-31T05:35:57;2.30;;;1.80;;
13855;SDS011;6998;53.608;9.958;2023-07-31T05:38:25;3.13;;;1.95;;
13855;SDS011;6998;53.608;9.958;2023-07-31T05:40:51;2.63;;;1.92;;
13855;SDS011;6998;53.608;9.958;2023-07-31T05:43:20;1.92;;;1.83;;
13855;SDS011;6998;53.608;9.958;2023-07-31T05:45:46;2.15;;;1.88;;
13855;SDS011;6998;53.608;9.958;2023-07-31T05:48:13;2.45;;;1.88;;
13855;SDS011;6998;53.608;9.958;2023-07-31T05:50:40;2.50;;;1.80;;
13855;SDS011;6998;53.608;9.958;2023-07-31T05:53:07;2.63;;;1.80;;
13855;SDS011;6998;53.608;9.958;2023-07-31T05:55:33;2.03;;;1.83;;
13855;SDS011;6998;53.608;9.958;2023-07-31T05:58:00;2.20;;;2.00;;
13855;SDS011;6998;53.608;9.958;2023-07-31T06:00:28;2.13;;;1.77;;
13855;SDS011;6998;53.608;9.958;2023-07-31T06:02:56;2.00;;;1.85;;
13855;SDS011;6998;53.608;9.958;2023-07-31T06:05:23;2.17;;;1.95;;
13855;SDS011;6998;53.608;9.958;2023-07-31T06:07:49;3.00;;;2.17;;
13855;SDS011;6998;53.608;9.958;2023-07-31T06:10:16;3.63;;;2.30;;
13855;SDS011;6998;53.608;9.958;2023-07-31T06:12:43;2.90;;;2.10;;
13855;SDS011;6998;53.608;9.958;2023-07-31T06:15:10;2.25;;;2.00;;
13855;SDS011;6998;53.608;9.958;2023-07-31T06:17:38;2.72;;;1.80;;
13855;SDS011;6998;53.608;9.958;2023-07-31T06:20:06;1.92;;;1.83;;
13855;SDS011;6998;53.608;9.958;2023-07-31T06:22:33;2.03;;;1.83;;
13855;SDS011;6998;53.608;9.958;2023-07-31T06:25:00;2.40;;;2.10;;
13855;SDS011;6998;53.608;9.958;2023-07-31T06:27:27;2.15;;;1.95;;
13855;SDS011;6998;53.608;9.958;2023-07-31T06:29:53;2.67;;;2.15;;
13855;SDS011;6998;53.608;9.958;2023-07-31T06:32:20;2.70;;;2.20;;
13855;SDS011;6998;53.608;9.958;2023-07-31T06:34:48;2.47;;;1.98;;
13855;SDS011;6998;53.608;9.958;2023-07-31T06:37:15;2.20;;;2.00;;
13855;SDS011;6998;53.608;9.958;2023-07-31T06:39:42;2.25;;;2.05;;
13855;SDS011;6998;53.608;9.958;2023-07-31T06:42:08;2.40;;;2.20;;
13855;SDS011;6998;53.608;9.958;2023-07-31T06:44:35;3.58;;;2.33;;
13855;SDS011;6998;53.608;9.958;2023-07-31T06:47:02;3.58;;;2.25;;
13855;SDS011;6998;53.608;9.958;2023-07-31T06:49:28;2.50;;;2.08;;
13855;SDS011;6998;53.608;9.958;2023-07-31T06:51:56;3.70;;;2.20;;
13855;SDS011;6998;53.608;9.958;2023-07-31T06:54:23;2.38;;;2.17;;
13855;SDS011;6998;53.608;9.958;2023-07-31T06:56:50;2.65;;;2.20;;
13855;SDS011;6998;53.608;9.958;2023-07-31T06:59:16;2.35;;;2.15;;
13855;SDS011;6998;53.608;9.958;2023-07-31T07:01:43;2.05;;;1.95;;
13855;SDS011;6998;53.608;9.958;2023-07-31T07:04:10;2.92;;;2.03;;
13855;SDS011;6998;53.608;9.958;2023-07-31T07:06:36;2.47;;;2.17;;
13855;SDS011;6998;53.608;9.958;2023-07-31T07:09:05;2.60;;;2.00;;
13855;SDS011;6998;53.608;9.958;2023-07-31T07:11:31;3.03;;;1.83;;
13855;SDS011;6998;53.608;9.958;2023-07-31T07:13:59;2.30;;;2.10;;
13855;SDS011;6998;53.608;9.958;2023-07-31T07:16:25;1.90;;;1.80;;
13855;SDS011;6998;53.608;9.958;2023-07-31T07:18:55;2.15;;;1.92;;
13855;SDS011;6998;53.608;9.958;2023-07-31T07:21:21;1.70;;;1.60;;
13855;SDS011;6998;53.608;9.958;2023-07-31T07:23:48;2.13;;;1.90;;
13855;SDS011;6998;53.608;9.958;2023-07-31T07:26:16;1.83;;;1.73;;
13855;SDS011;6998;53.608;9.958;2023-07-31T07:28:43;1.88;;;1.50;;
13855;SDS011;6998;53.608;9.958;2023-07-31T07:31:09;1.65;;;1.40;;
13855;SDS011;6998;53.608;9.958;2023-07-31T07:33:36;2.78;;;1.60;;
13855;SDS011;6998;53.608;9.958;2023-07-31T07:36:03;3.45;;;1.67;;
13855;SDS011;6998;53.608;9.958;2023-07-31T07:38:34;1.80;;;1.70;;
13855;SDS011;6998;53.608;9.958;2023-07-31T07:41:01;1.63;;;1.52;;
13855;SDS011;6998;53.608;9.958;2023-07-31T07:43:29;1.83;;;1.55;;
13855;SDS011;6998;53.608;9.958;2023-07-31T07:45:56;2.95;;;1.77;;
13855;SDS011;6998;53.608;9.958;2023-07-31T07:48:22;2.45;;;1.65;;
13855;SDS011;6998;53.608;9.958;2023-07-31T07:50:50;1.95;;;1.58;;
13855;SDS011;6998;53.608;9.958;2023-07-31T07:53:16;2.03;;;1.40;;
13855;SDS011;6998;53.608;9.958;2023-07-31T07:55:43;3.15;;;1.70;;
13855;SDS011;6998;53.608;9.958;2023-07-31T07:58:10;1.40;;;1.30;;
13855;SDS011;6998;53.608;9.958;2023-07-31T08:00:38;1.50;;;1.40;;
13855;SDS011;6998;53.608;9.958;2023-07-31T08:03:05;1.90;;;1.70;;
13855;SDS011;6998;53.608;9.958;2023-07-31T08:05:32;2.03;;;1.58;;
13855;SDS011;6998;53.608;9.958;2023-07-31T08:07:59;2.17;;;1.65;;
13855;SDS011;6998;53.608;9.958;2023-07-31T08:10:26;1.60;;;1.50;;
13855;SDS011;6998;53.608;9.958;2023-07-31T08:12:53;1.70;;;1.60;;
13855;SDS011;6998;53.608;9.958;2023-07-31T08:15:20;2.63;;;1.73;;
13855;SDS011;6998;53.608;9.958;2023-07-31T08:17:48;1.80;;;1.70;;
13855;SDS011;6998;53.608;9.958;2023-07-31T08:20:15;1.60;;;1.50;;
13855;SDS011;6998;53.608;9.958;2023-07-31T08:22:41;2.05;;;1.70;;
13855;SDS011;6998;53.608;9.958;2023-07-31T08:25:08;2.13;;;1.77;;
13855;SDS011;6998;53.608;9.958;2023-07-31T08:27:35;4.20;;;1.70;;
13855;SDS011;6998;53.608;9.958;2023-07-31T08:30:02;1.60;;;1.50;;
13855;SDS011;6998;53.608;9.958;2023-07-31T08:32:29;2.58;;;1.45;;
13855;SDS011;6998;53.608;9.958;2023-07-31T08:34:57;2.78;;;1.63;;
13855;SDS011;6998;53.608;9.958;2023-07-31T08:37:23;2.33;;;1.55;;
13855;SDS011;6998;53.608;9.958;2023-07-31T08:39:50;2.08;;;1.60;;
13855;SDS011;6998;53.608;9.958;2023-07-31T08:42:17;2.25;;;1.52;;
13855;SDS011;6998;53.608;9.958;2023-07-31T08:44:43;1.30;;;1.20;;
13855;SDS011;6998;53.608;9.958;2023-07-31T08:47:12;1.45;;;1.20;;
13855;SDS011;6998;53.608;9.958;2023-07-31T08:49:40;1.15;;;1.05;;
13855;SDS011;6998;53.608;9.958;2023-07-31T08:52:09;1.58;;;1.25;;
13855;SDS011;6998;53.608;9.958;2023-07-31T08:54:36;1.83;;;1.10;;
13855;SDS011;6998;53.608;9.958;2023-07-31T08:57:03;1.77;;;1.13;;
13855;SDS011;6998;53.608;9.958;2023-07-31T08:59:31;2.17;;;1.20;;
13855;SDS011;6998;53.608;9.958;2023-07-31T09:02:03;1.38;;;1.27;;
13855;SDS011;6998;53.608;9.958;2023-07-31T09:04:32;1.25;;;1.15;;
13855;SDS011;6998;53.608;9.958;2023-07-31T09:06:59;1.33;;;1.17;;
13855;SDS011;6998;53.608;9.958;2023-07-31T09:09:29;1.00;;;0.90;;
13855;SDS011;6998;53.608;9.958;2023-07-31T09:11:56;1.60;;;1.08;;
13855;SDS011;6998;53.608;9.958;2023-07-31T09:14:24;1.13;;;1.02;;
13855;SDS011;6998;53.608;9.958;2023-07-31T09:16:52;0.90;;;0.90;;
13855;SDS011;6998;53.608;9.958;2023-07-31T09:19:26;1.10;;;1.00;;
13855;SDS011;6998;53.608;9.958;2023-07-31T09:21:53;1.13;;;1.02;;
13855;SDS011;6998;53.608;9.958;2023-07-31T09:24:27;1.20;;;1.10;;
13855;SDS011;6998;53.608;9.958;2023-07-31T09:26:57;2.42;;;1.15;;
13855;SDS011;6998;53.608;9.958;2023-07-31T09:29:25;2.38;;;1.10;;
13855;SDS011;6998;53.608;9.958;2023-07-31T09:31:53;1.08;;;0.90;;
13855;SDS011;6998;53.608;9.958;2023-07-31T09:34:20;1.30;;;1.20;;
13855;SDS011;6998;53.608;9.958;2023-07-31T09:36:47;1.10;;;1.00;;
13855;SDS011;6998;53.608;9.958;2023-07-31T09:39:15;1.67;;;1.10;;
13855;SDS011;6998;53.608;9.958;2023-07-31T09:41:46;1.10;;;1.00;;
13855;SDS011;6998;53.608;9.958;2023-07-31T09:44:15;1.50;;;1.20;;
13855;SDS011;6998;53.608;9.958;2023-07-31T09:46:41;1.10;;;1.00;;
13855;SDS011;6998;53.608;9.958;2023-07-31T09:49:09;2.20;;;1.00;;
13855;SDS011;6998;53.608;9.958;2023-07-31T09:51:36;1.92;;;1.40;;
13855;SDS011;6998;53.608;9.958;2023-07-31T09:54:10;1.15;;;1.05;;
13855;SDS011;6998;53.608;9.958;2023-07-31T09:56:39;1.08;;;0.98;;
13855;SDS011;6998;53.608;9.958;2023-07-31T09:59:09;1.05;;;0.95;;
13855;SDS011;6998;53.608;9.958;2023-07-31T10:01:39;2.28;;;1.13;;
13855;SDS011;6998;53.608;9.958;2023-07-31T10:04:07;1.20;;;1.10;;
13855;SDS011;6998;53.608;9.958;2023-07-31T10:06:35;1.35;;;0.90;;
13855;SDS011;6998;53.608;9.958;2023-07-31T10:09:02;1.10;;;1.00;;
13855;SDS011;6998;53.608;9.958;2023-07-31T10:11:31;1.20;;;0.98;;
13855;SDS011;6998;53.608;9.958;2023-07-31T10:14:04;1.10;;;1.00;;
13855;SDS011;6998;53.608;9.958;2023-07-31T10:16:32;2.50;;;1.25;;
13855;SDS011;6998;53.608;9.958;2023-07-31T10:19:00;0.88;;;0.88;;
13855;SDS011;6998;53.608;9.958;2023-07-31T10:21:27;2.35;;;1.00;;
13855;SDS011;6998;53.608;9.958;2023-07-31T10:23:55;1.23;;;0.88;;
13855;SDS011;6998;53.608;9.958;2023-07-31T10:26:22;0.70;;;0.70;;
13855;SDS011;6998;53.608;9.958;2023-07-31T10:28:51;1.08;;;0.80;;
13855;SDS011;6998;53.608;9.958;2023-07-31T10:31:19;0.88;;;0.60;;
13855;SDS011;6998;53.608;9.958;2023-07-31T10:33:47;0.93;;;0.60;;
13855;SDS011;6998;53.608;9.958;2023-07-31T10:36:16;1.33;;;0.57;;
13855;SDS011;6998;53.608;9.958;2023-07-31T10:38:44;0.47;;;0.40;;
13855;SDS011;6998;53.608;9.958;2023-07-31T10:41:11;1.83;;;0.82;;
13855;SDS011;6998;53.608;9.958;2023-07-31T10:44:11;0.63;;;0.60;;
13855;SDS011;6998;53.608;9.958;2023-07-31T10:46:32;0.85;;;0.80;;
13855;SDS011;6998;53.608;9.958;2023-07-31T10:48:59;0.98;;;0.88;;
13855;SDS011;6998;53.608;9.958;2023-07-31T10:54:10;0.93;;;0.93;;
13855;SDS011;6998;53.608;9.958;2023-07-31T10:56:39;1.30;;;0.98;;
13855;SDS011;6998;53.608;9.958;2023-07-31T10:59:10;1.92;;;0.90;;
13855;SDS011;6998;53.608;9.958;2023-07-31T11:01:52;1.10;;;0.93;;
13855;SDS011;6998;53.608;9.958;2023-07-31T11:04:22;0.50;;;0.50;;
13855;SDS011;6998;53.608;9.958;2023-07-31T11:06:57;0.60;;;0.60;;
13855;SDS011;6998;53.608;9.958;2023-07-31T11:09:27;0.70;;;0.70;;
13855;SDS011;6998;53.608;9.958;2023-07-31T11:11:56;1.30;;;0.90;;
13855;SDS011;6998;53.608;9.958;2023-07-31T11:14:23;1.77;;;0.77;;
13855;SDS011;6998;53.608;9.958;2023-07-31T11:16:50;0.70;;;0.70;;
13855;SDS011;6998;53.608;9.958;2023-07-31T11:19:21;0.73;;;0.68;;
13855;SDS011;6998;53.608;9.958;2023-07-31T11:21:49;0.80;;;0.73;;
13855;SDS011;6998;53.608;9.958;2023-07-31T11:24:18;1.08;;;0.80;;
13855;SDS011;6998;53.608;9.958;2023-07-31T11:26:49;1.77;;;0.75;;
13855;SDS011;6998;53.608;9.958;2023-07-31T11:29:17;1.83;;;0.88;;
13855;SDS011;6998;53.608;9.958;2023-07-31T11:31:44;1.33;;;0.90;;
13855;SDS011;6998;53.608;9.958;2023-07-31T11:34:12;0.90;;;0.70;;
13855;SDS011;6998;53.608;9.958;2023-07-31T11:36:40;0.90;;;0.80;;
13855;SDS011;6998;53.608;9.958;2023-07-31T11:39:07;0.88;;;0.70;;
13855;SDS011;6998;53.608;9.958;2023-07-31T11:41:36;1.65;;;0.90;;
13855;SDS011;6998;53.608;9.958;2023-07-31T11:44:06;0.93;;;0.70;;
13855;SDS011;6998;53.608;9.958;2023-07-31T11:46:33;0.90;;;0.50;;
13855;SDS011;6998;53.608;9.958;2023-07-31T11:48:59;1.73;;;0.50;;
13855;SDS011;6998;53.608;9.958;2023-07-31T11:51:27;0.73;;;0.50;;
13855;SDS011;6998;53.608;9.958;2023-07-31T11:53:56;0.73;;;0.52;;
13855;SDS011;6998;53.608;9.958;2023-07-31T11:56:24;0.88;;;0.50;;
13855;SDS011;6998;53.608;9.958;2023-07-31T11:58:55;0.70;;;0.60;;
13855;SDS011;6998;53.608;9.958;2023-07-31T12:01:24;0.60;;;0.60;;
13855;SDS011;6998;53.608;9.958;2023-07-31T12:03:53;0.73;;;0.65;;
13855;SDS011;6998;53.608;9.958;2023-07-31T12:06:20;0.90;;;0.70;;
13855;SDS011;6998;53.608;9.958;2023-07-31T12:08:47;1.15;;;0.80;;
13855;SDS011;6998;53.608;9.958;2023-07-31T12:11:14;0.80;;;0.80;;
13855;SDS011;6998;53.608;9.958;2023-07-31T12:13:42;1.08;;;0.80;;
13855;SDS011;6998;53.608;9.958;2023-07-31T12:16:10;0.88;;;0.70;;
13855;SDS011;6998;53.608;9.958;2023-07-31T12:18:37;0.60;;;0.60;;
13855;SDS011;6998;53.608;9.958;2023-07-31T12:21:05;0.80;;;0.77;;
13855;SDS011;6998;53.608;9.958;2023-07-31T12:23:33;1.35;;;0.70;;
13855;SDS011;6998;53.608;9.958;2023-07-31T12:26:02;0.80;;;0.80;;
13855;SDS011;6998;53.608;9.958;2023-07-31T12:28:34;0.77;;;0.70;;
13855;SDS011;6998;53.608;9.958;2023-07-31T12:31:03;1.08;;;0.90;;
13855;SDS011;6998;53.608;9.958;2023-07-31T12:33:32;1.08;;;0.80;;
13855;SDS011;6998;53.608;9.958;2023-07-31T12:36:00;0.80;;;0.80;;
13855;SDS011;6998;53.608;9.958;2023-07-31T12:38:28;0.57;;;0.57;;
13855;SDS011;6998;53.608;9.958;2023-07-31T12:40:55;0.88;;;0.73;;
13855;SDS011;6998;53.608;9.958;2023-07-31T12:43:22;2.67;;;0.70;;
13855;SDS011;6998;53.608;9.958;2023-07-31T12:45:49;0.70;;;0.70;;
13855;SDS011;6998;53.608;9.958;2023-07-31T12:48:15;3.30;;;0.90;;
13855;SDS011;6998;53.608;9.958;2023-07-31T12:50:43;1.52;;;0.88;;
13855;SDS011;6998;53.608;9.958;2023-07-31T12:53:10;1.88;;;0.90;;
13855;SDS011;6998;53.608;9.958;2023-07-31T12:55:37;1.55;;;0.73;;
13855;SDS011;6998;53.608;9.958;2023-07-31T12:58:03;0.70;;;0.70;;
13855;SDS011;6998;53.608;9.958;2023-07-31T13:00:30;0.80;;;0.80;;
13855;SDS011;6998;53.608;9.958;2023-07-31T13:02:57;0.80;;;0.80;;
13855;SDS011;6998;53.608;9.958;2023-07-31T13:05:23;1.13;;;1.02;;
13855;SDS011;6998;53.608;9.958;2023-07-31T13:07:52;0.88;;;0.80;;
13855;SDS011;6998;53.608;9.958;2023-07-31T13:10:19;1.30;;;1.00;;
13855;SDS011;6998;53.608;9.958;2023-07-31T13:12:46;3.65;;;1.08;;
13855;SDS011;6998;53.608;9.958;2023-07-31T13:15:12;1.05;;;0.70;;
13855;SDS011;6998;53.608;9.958;2023-07-31T13:17:40;1.30;;;0.90;;
13855;SDS011;6998;53.608;9.958;2023-07-31T13:20:07;2.17;;;0.70;;
13855;SDS011;6998;53.608;9.958;2023-07-31T13:22:34;0.80;;;0.80;;
13855;SDS011;6998;53.608;9.958;2023-07-31T13:25:02;1.20;;;1.10;;
13855;SDS011;6998;53.608;9.958;2023-07-31T13:27:30;0.70;;;0.70;;
13855;SDS011;6998;53.608;9.958;2023-07-31T13:29:57;1.17;;;0.80;;
13855;SDS011;6998;53.608;9.958;2023-07-31T13:32:24;1.30;;;0.90;;
13855;SDS011;6998;53.608;9.958;2023-07-31T13:34:51;0.88;;;0.75;;
13855;SDS011;6998;53.608;9.958;2023-07-31T13:37:18;1.10;;;0.90;;
13855;SDS011;6998;53.608;9.958;2023-07-31T13:39:44;1.65;;;0.90;;
13855;SDS011;6998;53.608;9.958;2023-07-31T13:42:12;0.80;;;0.60;;
13855;SDS011;6998;53.608;9.958;2023-07-31T13:44:39;0.85;;;0.80;;
13855;SDS011;6998;53.608;9.958;2023-07-31T13:47:06;1.00;;;0.90;;
13855;SDS011;6998;53.608;9.958;2023-07-31T13:49:34;1.35;;;0.80;;
13855;SDS011;6998;53.608;9.958;2023-07-31T13:52:02;1.02;;;0.90;;
13855;SDS011;6998;53.608;9.958;2023-07-31T13:54:29;0.90;;;0.80;;
13855;SDS011;6998;53.608;9.958;2023-07-31T13:56:56;2.42;;;1.10;;
13855;SDS011;6998;53.608;9.958;2023-07-31T13:59:24;1.08;;;0.80;;
13855;SDS011;6998;53.608;9.958;2023-07-31T14:01:51;1.02;;;0.90;;
13855;SDS011;6998;53.608;9.958;2023-07-31T14:04:17;2.10;;;0.90;;
13855;SDS011;6998;53.608;9.958;2023-07-31T14:06:44;2.20;;;0.90;;
13855;SDS011;6998;53.608;9.958;2023-07-31T14:09:13;1.80;;;0.95;;
13855;SDS011;6998;53.608;9.958;2023-07-31T14:11:39;1.15;;;1.05;;
13855;SDS011;6998;53.608;9.958;2023-07-31T14:14:06;1.10;;;0.90;;
13855;SDS011;6998;53.608;9.958;2023-07-31T14:16:36;1.10;;;0.90;;
13855;SDS011;6998;53.608;9.958;2023-07-31T14:19:02;1.15;;;0.80;;
13855;SDS011;6998;53.608;9.958;2023-07-31T14:21:30;1.05;;;0.90;;
13855;SDS011;6998;53.608;9.958;2023-07-31T14:23:58;0.55;;;0.50;;
13855;SDS011;6998;53.608;9.958;2023-07-31T14:26:25;1.83;;;0.80;;
13855;SDS011;6998;53.608;9.958;2023-07-31T14:28:51;1.20;;;0.70;;
13855;SDS011;6998;53.608;9.958;2023-07-31T14:31:18;1.30;;;0.75;;
13855;SDS011;6998;53.608;9.958;2023-07-31T14:33:46;1.48;;;0.82;;
13855;SDS011;6998;53.608;9.958;2023-07-31T14:36:13;1.67;;;0.70;;
13855;SDS011;6998;53.608;9.958;2023-07-31T14:38:40;1.25;;;0.95;;
13855;SDS011;6998;53.608;9.958;2023-07-31T14:41:06;1.40;;;1.10;;
13855;SDS011;6998;53.608;9.958;2023-07-31T14:43:33;1.95;;;1.10;;
13855;SDS011;6998;53.608;9.958;2023-07-31T14:46:00;1.80;;;0.75;;
13855;SDS011;6998;53.608;9.958;2023-07-31T14:48:26;4.45;;;0.90;;
13855;SDS011;6998;53.608;9.958;2023-07-31T14:50:55;1.92;;;0.93;;
13855;SDS011;6998;53.608;9.958;2023-07-31T14:53:22;0.98;;;0.80;;
13855;SDS011;6998;53.608;9.958;2023-07-31T14:55:49;2.42;;;0.98;;
13855;SDS011;6998;53.608;9.958;2023-07-31T14:58:16;3.63;;;1.80;;
13855;SDS011;6998;53.608;9.958;2023-07-31T15:00:43;1.10;;;1.00;;
13855;SDS011;6998;53.608;9.958;2023-07-31T15:03:09;1.20;;;1.00;;
13855;SDS011;6998;53.608;9.958;2023-07-31T15:05:36;1.27;;;0.90;;